Jrt Moran — WDI3936 — position and weather

sailwx.info

Track history (hours):
 
Tides and Currents Weather Stations Pressure Air Temp Water Temp Dewpoint Dewpoint Depression Visibility Wind Speed Wind Dir Waves Ship Positions

Jrt Moran

Owner: Moran Towing Corporation, New Canaan, CT. More information available from US FCC via Universal Licensing System and Coast Guard Vessel Documentation Center.

Last reported at 2017-Dec-11 07:30 UTC. Time now 2017-Dec-11 07:56 UTC.
Position N 40°39' W 074°08'.

Length 28 m; draft 4.6 m.

Type: Tug. MMSI: 338073000.

Date/timePositionNaut miles runAvg speedWind from/ knotsBaromVisibWave heightAir tempDewpointWater temp
2017-Dec-11 07:30N 40°39' W 074°08'0 0.3
2017-Dec-11 06:52N 40°38' W 074°08'0 0.0
2017-Dec-11 06:13N 40°38' W 074°08'0 0.0
2017-Dec-11 05:16N 40°38' W 074°08'0 0.0
2017-Dec-11 04:58N 40°38' W 074°08'0 0.0
2017-Dec-11 04:22N 40°38' W 074°08'0 0.0
2017-Dec-11 03:49N 40°38' W 074°08'0 0.0
2017-Dec-11 03:16N 40°38' W 074°08'0 0.0
2017-Dec-11 02:58N 40°38' W 074°08'0 0.0
2017-Dec-11 02:22N 40°38' W 074°08'0 0.0
2017-Dec-11 01:58N 40°38' W 074°08'0 0.0
2017-Dec-11 01:22N 40°38' W 074°08'0 0.0
2017-Dec-11 00:58N 40°38' W 074°08'0 0.0
2017-Dec-11 00:28N 40°38' W 074°08'0 0.0
2017-Dec-10 23:58N 40°38' W 074°08'0 0.0
2017-Dec-10 23:16N 40°38' W 074°08'0 0.0
2017-Dec-10 22:58N 40°38' W 074°08'0 0.0
2017-Dec-10 22:28N 40°38' W 074°08'0 0.0
2017-Dec-10 21:52N 40°38' W 074°08'0 0.0
2017-Dec-10 20:58N 40°38' W 074°08'0 0.0
2017-Dec-10 20:24N 40°38' W 074°08'3 8.5
2017-Dec-10 20:00N 40°38' W 074°03'3 5.7
2017-Dec-10 19:30N 40°39' W 074°07'1 2.8
2017-Dec-10 18:59N 40°39' W 074°09'2 3.1
2017-Dec-10 18:30N 40°41' W 074°09'0 0.3
2017-Dec-10 18:00N 40°41' W 074°09'2 3.1
2017-Dec-10 17:30N 40°39' W 074°09'1 1.7
2017-Dec-10 16:53N 40°38' W 074°08'0 0.0
2017-Dec-10 15:53N 40°38' W 074°08'0 0.0
2017-Dec-10 13:44N 40°38' W 074°08'0 0.0
2017-Dec-10 13:17N 40°38' W 074°08'0 0.0
2017-Dec-10 12:41N 40°38' W 074°08'0 0.0
2017-Dec-10 12:17N 40°38' W 074°08'0 0.0
2017-Dec-10 11:26N 40°38' W 074°08'0 0.0
2017-Dec-10 09:11N 40°38' W 074°08'1 3.3
2017-Dec-10 09:00N 40°39' W 074°09'2 4.5
2017-Dec-10 08:30N 40°41' W 074°09'1 1.4
2017-Dec-10 08:00N 40°40' W 074°08'2 1.2
2017-Dec-10 06:37N 40°38' W 074°08'0 0.0
2017-Dec-10 06:22N 40°38' W 074°08'0 0.0
2017-Dec-10 05:34N 40°38' W 074°08'0 0.0
2017-Dec-10 05:28N 40°38' W 074°08'0 0.0
2017-Dec-10 04:58N 40°38' W 074°08'1 2.5
2017-Dec-10 04:30N 40°39' W 074°09'1 2.4
2017-Dec-10 04:00N 40°41' W 074°09'1 2.6
2017-Dec-10 03:30N 40°39' W 074°09'1 1.8
2017-Dec-10 02:54N 40°38' W 074°08'0 0.0
2017-Dec-10 02:30N 40°38' W 074°08'0 0.0
2017-Dec-10 01:53N 40°38' W 074°08'0 0.0
2017-Dec-10 01:27N 40°38' W 074°08'0 0.0
2017-Dec-10 01:00N 40°38' W 074°08'1 1.9
2017-Dec-10 00:30N 40°39' W 074°07'0 0.5
2017-Dec-10 00:00N 40°39' W 074°06'3 5.2
2017-Dec-09 23:30N 40°38' W 074°03'1 3.0
2017-Dec-09 23:00N 40°39' W 074°04'3 4.6
2017-Dec-09 22:26N 40°38' W 074°08'0 0.0
2017-Dec-09 21:50N 40°38' W 074°08'0 0.0
2017-Dec-09 21:23N 40°38' W 074°08'0 0.0
2017-Dec-09 20:56N 40°38' W 074°08'0 0.0
2017-Dec-09 20:26N 40°38' W 074°08'0 0.0
2017-Dec-09 19:59N 40°38' W 074°08'0 0.0
2017-Dec-09 19:29N 40°38' W 074°08'0 0.0
2017-Dec-09 18:59N 40°38' W 074°08'0 0.0
2017-Dec-09 18:29N 40°38' W 074°08'0 0.0
2017-Dec-09 17:59N 40°38' W 074°08'0 0.0
2017-Dec-09 17:29N 40°38' W 074°08'0 0.0
2017-Dec-09 17:00N 40°39' W 074°08'1 2.3
2017-Dec-09 16:30N 40°39' W 074°09'1 2.9
2017-Dec-09 16:00N 40°41' W 074°09'1 1.8
2017-Dec-09 15:30N 40°40' W 074°08'2 4.0
2017-Dec-09 15:00N 40°39' W 074°06'3 5.3
2017-Dec-09 14:30N 40°38' W 074°03'4 7.4
2017-Dec-09 14:00N 40°38' W 074°08'0 0.0
2017-Dec-09 13:14N 40°38' W 074°08'0 0.0
2017-Dec-09 12:53N 40°38' W 074°08'0 0.0
2017-Dec-09 12:30N 40°38' W 074°08'3 5.5
2017-Dec-09 12:00N 40°41' W 074°09'0 0.3
2017-Dec-09 11:30N 40°41' W 074°09'1 2.8
2017-Dec-09 11:00N 40°40' W 074°08'2 3.1
2017-Dec-09 10:29N 40°39' W 074°07'3 6.0
2017-Dec-09 10:00N 40°39' W 074°04'3 5.1
2017-Dec-09 09:31N 40°36' W 074°03'4 8.8
2017-Dec-09 09:00N 40°39' W 074°08'0 0.2
2017-Dec-09 08:30N 40°38' W 074°08'0 0.0
2017-Dec-09 08:00N 40°38' W 074°08'2 4.6
2017-Dec-09 07:30N 40°41' W 074°09'0 0.2
2017-Dec-09 07:00N 40°41' W 074°09'0 0.4
2017-Dec-09 06:30N 40°41' W 074°08'2 4.0
2017-Dec-09 06:00N 40°39' W 074°09'2 4.3
2017-Dec-09 05:30N 40°39' W 074°06'3 5.8
2017-Dec-09 05:00N 40°37' W 074°03'4 7.2
2017-Dec-09 04:30N 40°39' W 074°07'0 0.5
2017-Dec-09 03:52N 40°38' W 074°08'0 0.0
2017-Dec-09 00:28N 40°38' W 074°08'0 0.0
2017-Dec-08 21:37N 40°38' W 074°08'0 0.0
2017-Dec-08 21:28N 40°38' W 074°08'0 0.0
2017-Dec-08 20:58N 40°38' W 074°08'0 0.0
2017-Dec-08 19:25N 40°38' W 074°08'0 0.0
2017-Dec-08 16:10N 40°38' W 074°08'0 0.0
2017-Dec-08 15:55N 40°38' W 074°08'0 0.0
2017-Dec-08 15:13N 40°38' W 074°08'0 0.0
2017-Dec-08 14:37N 40°38' W 074°08'0 0.0
2017-Dec-08 14:10N 40°38' W 074°08'0 0.0
2017-Dec-08 13:52N 40°38' W 074°08'0 0.0
2017-Dec-08 13:29N 40°38' W 074°08'1 2.0
2017-Dec-08 13:00N 40°39' W 074°09'2 3.6
2017-Dec-08 12:30N 40°40' W 074°08'1 2.1
2017-Dec-08 12:00N 40°41' W 074°09'0 0.2
2017-Dec-08 11:30N 40°41' W 074°09'1 2.6
2017-Dec-08 11:00N 40°40' W 074°09'1 1.5
2017-Dec-08 10:30N 40°39' W 074°09'3 5.0
2017-Dec-08 10:00N 40°39' W 074°06'2 3.4
2017-Dec-08 09:30N 40°38' W 074°04'611.1
2017-Dec-08 09:00N 40°39' W 074°11'1 1.3
2017-Dec-08 08:30N 40°38' W 074°12'2 4.7
2017-Dec-08 08:00N 40°39' W 074°09'3 6.4
2017-Dec-08 07:30N 40°39' W 074°04'1 2.6
2017-Dec-08 07:01N 40°38' W 074°04'2 3.8
2017-Dec-08 06:30N 40°40' W 074°03'1 1.8
2017-Dec-08 06:00N 40°40' W 074°04'2 4.6
2017-Dec-08 05:31N 40°39' W 074°07'1 1.0
2017-Dec-08 04:42N 40°38' W 074°08'0 0.0
2017-Dec-08 04:30N 40°38' W 074°08'2 3.2
2017-Dec-08 04:00N 40°39' W 074°06'0 0.9
2017-Dec-08 03:30N 40°39' W 074°06'1 0.1
2017-Dec-07 13:03N 40°38' W 074°08'0 4.1
2017-Dec-07 13:00N 40°39' W 074°08'3 6.3
2017-Dec-07 12:30N 40°42' W 074°08'0 0.5
2017-Dec-07 12:00N 40°41' W 074°08'2 4.8
2017-Dec-07 11:30N 40°39' W 074°09'3 5.2
2017-Dec-07 11:00N 40°39' W 074°05'2 4.2
2017-Dec-07 10:30N 40°38' W 074°03'3 6.5
2017-Dec-07 10:00N 40°39' W 074°07'0 0.9
2017-Dec-07 09:29N 40°39' W 074°08'0 0.0
2017-Dec-07 07:26N 40°38' W 074°08'0 0.0
2017-Dec-07 06:44N 40°38' W 074°08'0 0.0
2017-Dec-07 06:29N 40°38' W 074°08'0 0.0
2017-Dec-07 05:38N 40°38' W 074°08'0 0.0
2017-Dec-07 05:20N 40°38' W 074°08'0 0.0
2017-Dec-07 04:59N 40°38' W 074°08'0 0.0
2017-Dec-07 04:20N 40°38' W 074°08'1 3.0
2017-Dec-07 04:00N 40°39' W 074°09'2 3.8
2017-Dec-07 03:30N 40°41' W 074°08'1 1.7
2017-Dec-07 03:00N 40°41' W 074°09'2 5.0
2017-Dec-07 02:30N 40°39' W 074°09'4 9.0
2017-Dec-07 02:00N 40°40' W 074°03'2 4.9
2017-Dec-07 01:30N 40°41' W 074°01'2 4.0
2017-Dec-07 01:00N 40°40' W 074°03'1 2.0
2017-Dec-07 00:30N 40°40' W 074°04'0 0.0
2017-Dec-07 00:00N 40°40' W 074°04'3 6.0
2017-Dec-06 23:30N 40°39' W 074°08'2 4.2
2017-Dec-06 23:00N 40°39' W 074°11'1 1.5
2017-Dec-06 22:30N 40°38' W 074°11'2 3.9
2017-Dec-06 21:59N 40°39' W 074°09'1 1.6
2017-Dec-06 21:30N 40°38' W 074°08'0 0.0
2017-Dec-06 21:00N 40°38' W 074°08'  
2017-Dec-04 09:39N 40°38' W 074°08'0 0.0
2017-Dec-04 09:27N 40°38' W 074°08'0 0.0
2017-Dec-04 09:00N 40°38' W 074°08'0 0.0
2017-Dec-04 08:30N 40°38' W 074°08'0 0.0
2017-Dec-04 08:00N 40°38' W 074°08'0 0.0
2017-Dec-04 07:30N 40°38' W 074°08'0 0.0
2017-Dec-04 07:00N 40°38' W 074°08'0 0.0
2017-Dec-04 06:18N 40°38' W 074°08'0 0.0
2017-Dec-04 06:00N 40°38' W 074°08'0 0.0
2017-Dec-04 05:24N 40°38' W 074°08'0 0.0
2017-Dec-04 05:00N 40°38' W 074°08'0 0.0
2017-Dec-04 03:45N 40°38' W 074°08'0 0.0
2017-Dec-04 03:27N 40°38' W 074°08'0 0.0
2017-Dec-04 03:00N 40°38' W 074°08'0 0.0
2017-Dec-04 02:27N 40°38' W 074°08'0 0.0
2017-Dec-04 01:57N 40°38' W 074°08'0 0.0
2017-Dec-04 01:30N 40°38' W 074°08'0 0.0
2017-Dec-04 01:00N 40°38' W 074°08'0 0.0
2017-Dec-04 00:30N 40°38' W 074°08'0 0.0
2017-Dec-03 23:18N 40°38' W 074°08'0 0.0
2017-Dec-03 22:36N 40°38' W 074°08'0 0.0
2017-Dec-03 22:30N 40°38' W 074°08'0 0.0
2017-Dec-03 21:54N 40°38' W 074°08'0 0.0
2017-Dec-03 21:06N 40°38' W 074°08'0 0.0
2017-Dec-03 21:00N 40°38' W 074°08'0 0.0
2017-Dec-03 20:18N 40°38' W 074°08'0 0.0
2017-Dec-03 20:00N 40°38' W 074°08'0 0.0
2017-Dec-03 18:50N 40°38' W 074°08'0 0.0
2017-Dec-03 18:26N 40°38' W 074°08'0 0.0
2017-Dec-03 17:59N 40°38' W 074°08'0 0.0
2017-Dec-03 17:29N 40°38' W 074°08'2 3.1
2017-Dec-03 17:00N 40°40' W 074°09'0 0.9
2017-Dec-03 16:29N 40°39' W 074°09'3 5.5
2017-Dec-03 16:00N 40°39' W 074°05'2 4.4
2017-Dec-03 15:30N 40°38' W 074°03'2 4.8
2017-Dec-03 15:00N 40°40' W 074°04'0 0.0
2017-Dec-03 14:30N 40°40' W 074°04'0 0.0
2017-Dec-03 14:00N 40°40' W 074°04'0 0.0
2017-Dec-03 13:30N 40°40' W 074°04'1 2.9
2017-Dec-03 13:01N 40°39' W 074°04'1 2.4
2017-Dec-03 12:31N 40°39' W 074°05'0 0.0
2017-Dec-03 12:00N 40°39' W 074°05'2 4.1
2017-Dec-03 11:30N 40°38' W 074°08'0 0.0
2017-Dec-03 10:45N 40°38' W 074°08'0 0.0
2017-Dec-03 09:42N 40°38' W 074°08'0 0.0
2017-Dec-03 09:27N 40°38' W 074°08'0 0.0
2017-Dec-03 08:57N 40°38' W 074°08'0 0.0
2017-Dec-03 08:24N 40°38' W 074°08'0 0.0
2017-Dec-03 06:30N 40°38' W 074°08'0 0.0
2017-Dec-03 05:39N 40°38' W 074°08'0 0.0
2017-Dec-03 05:24N 40°38' W 074°08'0 0.0
2017-Dec-03 04:18N 40°38' W 074°08'0 0.0
2017-Dec-03 02:57N 40°38' W 074°08'0 0.0
2017-Dec-03 02:27N 40°38' W 074°08'0 0.0
2017-Dec-03 01:06N 40°38' W 074°08'0 0.0
2017-Dec-03 00:39N 40°38' W 074°08'0 0.0
2017-Dec-03 00:27N 40°38' W 074°08'0 0.0
2017-Dec-02 23:03N 40°38' W 074°08'0 0.0
2017-Dec-02 22:48N 40°38' W 074°08'0 0.0
2017-Dec-02 19:44N 40°38' W 074°08'1 3.8
2017-Dec-02 19:30N 40°39' W 074°09'3 5.7
2017-Dec-02 19:01N 40°41' W 074°08'2 3.4
2017-Dec-02 18:30N 40°40' W 074°09'1 1.7
2017-Dec-02 17:43N 40°38' W 074°08'0 0.0
2017-Dec-02 17:16N 40°38' W 074°08'0 0.0
2017-Dec-02 16:49N 40°39' W 074°08'0 0.1
2017-Dec-02 16:26N 40°38' W 074°08'0 0.0
2017-Dec-02 15:38N 40°38' W 074°08'0 0.0
2017-Dec-02 15:23N 40°38' W 074°08'0 0.0
2017-Dec-02 14:56N 40°38' W 074°08'0 0.0
2017-Dec-02 13:32N 40°38' W 074°08'0 0.0
2017-Dec-02 13:26N 40°38' W 074°08'0 0.0
2017-Dec-02 12:56N 40°38' W 074°08'0 0.0
2017-Dec-02 12:26N 40°38' W 074°08'3 6.9
2017-Dec-02 12:01N 40°40' W 074°05'1 1.1
2017-Dec-02 11:31N 40°40' W 074°05'1 2.3
2017-Dec-02 11:00N 40°40' W 074°04'1 1.7
2017-Dec-02 10:30N 40°39' W 074°03'3 6.4
2017-Dec-02 10:01N 40°39' W 074°07'2 3.1
2017-Dec-02 09:30N 40°40' W 074°08'0 0.6
2017-Dec-02 09:00N 40°40' W 074°09'0 0.0
2017-Dec-02 08:30N 40°40' W 074°09'0 0.4
2017-Dec-02 08:00N 40°40' W 074°09'0 0.0
2017-Dec-02 07:30N 40°40' W 074°09'0 0.0
2017-Dec-02 07:00N 40°40' W 074°09'1 1.8
2017-Dec-02 06:31N 40°39' W 074°09'2 4.2
2017-Dec-02 06:00N 40°41' W 074°09'0 0.4
2017-Dec-02 05:30N 40°41' W 074°09'3 1.2
2017-Dec-02 03:21N 40°38' W 074°08'0 0.0
2017-Dec-02 02:57N 40°38' W 074°08'0 0.0
2017-Dec-02 02:27N 40°38' W 074°08'0 0.0
2017-Dec-02 01:09N 40°38' W 074°08'0 0.0
2017-Dec-02 00:45N 40°38' W 074°08'0 0.0
2017-Dec-02 00:30N 40°38' W 074°08'0 0.0
2017-Dec-01 23:27N 40°38' W 074°08'0 0.0
2017-Dec-01 22:57N 40°38' W 074°08'0 0.0
2017-Dec-01 22:15N 40°38' W 074°08'0 0.0
2017-Dec-01 21:25N 40°38' W 074°08'1 2.5
2017-Dec-01 21:00N 40°39' W 074°09'1 2.8
2017-Dec-01 20:30N 40°41' W 074°08'1 1.2
2017-Dec-01 20:00N 40°41' W 074°09'2 4.5
2017-Dec-01 19:31N 40°39' W 074°09'1 1.7
2017-Dec-01 18:55N 40°38' W 074°08'0 0.0
2017-Dec-01 18:28N 40°38' W 074°08'0 0.0
2017-Dec-01 17:55N 40°38' W 074°08'0 0.0
2017-Dec-01 17:28N 40°38' W 074°08'0 0.0
2017-Dec-01 16:58N 40°38' W 074°08'0 0.0
2017-Dec-01 16:29N 40°38' W 074°08'0 0.0
2017-Dec-01 15:58N 40°39' W 074°08'0 0.0
2017-Dec-01 15:25N 40°39' W 074°08'0 0.0
2017-Dec-01 14:55N 40°39' W 074°08'0 0.0
2017-Dec-01 14:28N 40°39' W 074°08'0 0.0
2017-Dec-01 13:58N 40°39' W 074°08'0 0.0
2017-Dec-01 13:28N 40°39' W 074°08'0 0.0
2017-Dec-01 12:58N 40°39' W 074°08'0 0.0
2017-Dec-01 12:28N 40°39' W 074°08'0 0.3
2017-Dec-01 12:00N 40°39' W 074°08'3 6.4
2017-Dec-01 11:29N 40°42' W 074°09'0 0.0
2017-Dec-01 10:59N 40°42' W 074°09'0 0.6
2017-Dec-01 10:30N 40°42' W 074°08'3 6.1
2017-Dec-01 10:00N 40°39' W 074°09'3 7.0
2017-Dec-01 09:30N 40°39' W 074°04'1 2.0
2017-Dec-01 09:00N 40°40' W 074°04'1 1.7
2017-Dec-01 08:30N 40°39' W 074°03'4 8.3
2017-Dec-01 08:00N 40°39' W 074°09'2 4.0
2017-Dec-01 07:30N 40°40' W 074°08'  
Track history (hours):
 
Tides and Currents Weather Stations Pressure Air Temp Water Temp Dewpoint Dewpoint Depression Visibility Wind Speed Wind Dir Waves Ship Positions

Jrt Moran

Owner: Moran Towing Corporation, New Canaan, CT. More information available from US FCC via Universal Licensing System and Coast Guard Vessel Documentation Center.

Last reported at 2017-Dec-11 07:30 UTC. Time now 2017-Dec-11 07:56 UTC.
Position N 40°39' W 074°08'.

Length 28 m; draft 4.6 m.

Type: Tug. MMSI: 338073000.

Date/timePositionNaut miles runAvg speedWind from/ knotsBaromVisibWave heightAir tempDewpointWater temp
2017-Dec-11 07:30N 40°39' W 074°08'0 0.3
2017-Dec-11 06:52N 40°38' W 074°08'0 0.0
2017-Dec-11 06:13N 40°38' W 074°08'0 0.0
2017-Dec-11 05:16N 40°38' W 074°08'0 0.0
2017-Dec-11 04:58N 40°38' W 074°08'0 0.0
2017-Dec-11 04:22N 40°38' W 074°08'0 0.0
2017-Dec-11 03:49N 40°38' W 074°08'0 0.0
2017-Dec-11 03:16N 40°38' W 074°08'0 0.0
2017-Dec-11 02:58N 40°38' W 074°08'0 0.0
2017-Dec-11 02:22N 40°38' W 074°08'0 0.0
2017-Dec-11 01:58N 40°38' W 074°08'0 0.0
2017-Dec-11 01:22N 40°38' W 074°08'0 0.0
2017-Dec-11 00:58N 40°38' W 074°08'0 0.0
2017-Dec-11 00:28N 40°38' W 074°08'0 0.0
2017-Dec-10 23:58N 40°38' W 074°08'0 0.0
2017-Dec-10 23:16N 40°38' W 074°08'0 0.0
2017-Dec-10 22:58N 40°38' W 074°08'0 0.0
2017-Dec-10 22:28N 40°38' W 074°08'0 0.0
2017-Dec-10 21:52N 40°38' W 074°08'0 0.0
2017-Dec-10 20:58N 40°38' W 074°08'0 0.0
2017-Dec-10 20:24N 40°38' W 074°08'3 8.5
2017-Dec-10 20:00N 40°38' W 074°03'3 5.7
2017-Dec-10 19:30N 40°39' W 074°07'1 2.8
2017-Dec-10 18:59N 40°39' W 074°09'2 3.1
2017-Dec-10 18:30N 40°41' W 074°09'0 0.3
2017-Dec-10 18:00N 40°41' W 074°09'2 3.1
2017-Dec-10 17:30N 40°39' W 074°09'1 1.7
2017-Dec-10 16:53N 40°38' W 074°08'0 0.0
2017-Dec-10 15:53N 40°38' W 074°08'0 0.0
2017-Dec-10 13:44N 40°38' W 074°08'0 0.0
2017-Dec-10 13:17N 40°38' W 074°08'0 0.0
2017-Dec-10 12:41N 40°38' W 074°08'0 0.0
2017-Dec-10 12:17N 40°38' W 074°08'0 0.0
2017-Dec-10 11:26N 40°38' W 074°08'0 0.0
2017-Dec-10 09:11N 40°38' W 074°08'1 3.3
2017-Dec-10 09:00N 40°39' W 074°09'2 4.5
2017-Dec-10 08:30N 40°41' W 074°09'1 1.4
2017-Dec-10 08:00N 40°40' W 074°08'2 1.2
2017-Dec-10 06:37N 40°38' W 074°08'0 0.0
2017-Dec-10 06:22N 40°38' W 074°08'0 0.0
2017-Dec-10 05:34N 40°38' W 074°08'0 0.0
2017-Dec-10 05:28N 40°38' W 074°08'0 0.0
2017-Dec-10 04:58N 40°38' W 074°08'1 2.5
2017-Dec-10 04:30N 40°39' W 074°09'1 2.4
2017-Dec-10 04:00N 40°41' W 074°09'1 2.6
2017-Dec-10 03:30N 40°39' W 074°09'1 1.8
2017-Dec-10 02:54N 40°38' W 074°08'0 0.0
2017-Dec-10 02:30N 40°38' W 074°08'0 0.0
2017-Dec-10 01:53N 40°38' W 074°08'0 0.0
2017-Dec-10 01:27N 40°38' W 074°08'0 0.0
2017-Dec-10 01:00N 40°38' W 074°08'1 1.9
2017-Dec-10 00:30N 40°39' W 074°07'0 0.5
2017-Dec-10 00:00N 40°39' W 074°06'3 5.2
2017-Dec-09 23:30N 40°38' W 074°03'1 3.0
2017-Dec-09 23:00N 40°39' W 074°04'3 4.6
2017-Dec-09 22:26N 40°38' W 074°08'0 0.0
2017-Dec-09 21:50N 40°38' W 074°08'0 0.0
2017-Dec-09 21:23N 40°38' W 074°08'0 0.0
2017-Dec-09 20:56N 40°38' W 074°08'0 0.0
2017-Dec-09 20:26N 40°38' W 074°08'0 0.0
2017-Dec-09 19:59N 40°38' W 074°08'0 0.0
2017-Dec-09 19:29N 40°38' W 074°08'0 0.0
2017-Dec-09 18:59N 40°38' W 074°08'0 0.0
2017-Dec-09 18:29N 40°38' W 074°08'0 0.0
2017-Dec-09 17:59N 40°38' W 074°08'0 0.0
2017-Dec-09 17:29N 40°38' W 074°08'0 0.0
2017-Dec-09 17:00N 40°39' W 074°08'1 2.3
2017-Dec-09 16:30N 40°39' W 074°09'1 2.9
2017-Dec-09 16:00N 40°41' W 074°09'1 1.8
2017-Dec-09 15:30N 40°40' W 074°08'2 4.0
2017-Dec-09 15:00N 40°39' W 074°06'3 5.3
2017-Dec-09 14:30N 40°38' W 074°03'4 7.4
2017-Dec-09 14:00N 40°38' W 074°08'0 0.0
2017-Dec-09 13:14N 40°38' W 074°08'0 0.0
2017-Dec-09 12:53N 40°38' W 074°08'0 0.0
2017-Dec-09 12:30N 40°38' W 074°08'3 5.5
2017-Dec-09 12:00N 40°41' W 074°09'0 0.3
2017-Dec-09 11:30N 40°41' W 074°09'1 2.8
2017-Dec-09 11:00N 40°40' W 074°08'2 3.1
2017-Dec-09 10:29N 40°39' W 074°07'3 6.0
2017-Dec-09 10:00N 40°39' W 074°04'3 5.1
2017-Dec-09 09:31N 40°36' W 074°03'4 8.8
2017-Dec-09 09:00N 40°39' W 074°08'0 0.2
2017-Dec-09 08:30N 40°38' W 074°08'0 0.0
2017-Dec-09 08:00N 40°38' W 074°08'2 4.6
2017-Dec-09 07:30N 40°41' W 074°09'0 0.2
2017-Dec-09 07:00N 40°41' W 074°09'0 0.4
2017-Dec-09 06:30N 40°41' W 074°08'2 4.0
2017-Dec-09 06:00N 40°39' W 074°09'2 4.3
2017-Dec-09 05:30N 40°39' W 074°06'3 5.8
2017-Dec-09 05:00N 40°37' W 074°03'4 7.2
2017-Dec-09 04:30N 40°39' W 074°07'0 0.5
2017-Dec-09 03:52N 40°38' W 074°08'0 0.0
2017-Dec-09 00:28N 40°38' W 074°08'0 0.0
2017-Dec-08 21:37N 40°38' W 074°08'0 0.0
2017-Dec-08 21:28N 40°38' W 074°08'0 0.0
2017-Dec-08 20:58N 40°38' W 074°08'0 0.0
2017-Dec-08 19:25N 40°38' W 074°08'0 0.0
2017-Dec-08 16:10N 40°38' W 074°08'0 0.0
2017-Dec-08 15:55N 40°38' W 074°08'0 0.0
2017-Dec-08 15:13N 40°38' W 074°08'0 0.0
2017-Dec-08 14:37N 40°38' W 074°08'0 0.0
2017-Dec-08 14:10N 40°38' W 074°08'0 0.0
2017-Dec-08 13:52N 40°38' W 074°08'0 0.0
2017-Dec-08 13:29N 40°38' W 074°08'1 2.0
2017-Dec-08 13:00N 40°39' W 074°09'2 3.6
2017-Dec-08 12:30N 40°40' W 074°08'1 2.1
2017-Dec-08 12:00N 40°41' W 074°09'0 0.2
2017-Dec-08 11:30N 40°41' W 074°09'1 2.6
2017-Dec-08 11:00N 40°40' W 074°09'1 1.5
2017-Dec-08 10:30N 40°39' W 074°09'3 5.0
2017-Dec-08 10:00N 40°39' W 074°06'2 3.4
2017-Dec-08 09:30N 40°38' W 074°04'611.1
2017-Dec-08 09:00N 40°39' W 074°11'1 1.3
2017-Dec-08 08:30N 40°38' W 074°12'2 4.7
2017-Dec-08 08:00N 40°39' W 074°09'3 6.4
2017-Dec-08 07:30N 40°39' W 074°04'1 2.6
2017-Dec-08 07:01N 40°38' W 074°04'2 3.8
2017-Dec-08 06:30N 40°40' W 074°03'1 1.8
2017-Dec-08 06:00N 40°40' W 074°04'2 4.6
2017-Dec-08 05:31N 40°39' W 074°07'1 1.0
2017-Dec-08 04:42N 40°38' W 074°08'0 0.0
2017-Dec-08 04:30N 40°38' W 074°08'2 3.2
2017-Dec-08 04:00N 40°39' W 074°06'0 0.9
2017-Dec-08 03:30N 40°39' W 074°06'1 0.1
2017-Dec-07 13:03N 40°38' W 074°08'0 4.1
2017-Dec-07 13:00N 40°39' W 074°08'3 6.3
2017-Dec-07 12:30N 40°42' W 074°08'0 0.5
2017-Dec-07 12:00N 40°41' W 074°08'2 4.8
2017-Dec-07 11:30N 40°39' W 074°09'3 5.2
2017-Dec-07 11:00N 40°39' W 074°05'2 4.2
2017-Dec-07 10:30N 40°38' W 074°03'3 6.5
2017-Dec-07 10:00N 40°39' W 074°07'0 0.9
2017-Dec-07 09:29N 40°39' W 074°08'0 0.0
2017-Dec-07 07:26N 40°38' W 074°08'0 0.0
2017-Dec-07 06:44N 40°38' W 074°08'0 0.0
2017-Dec-07 06:29N 40°38' W 074°08'0 0.0
2017-Dec-07 05:38N 40°38' W 074°08'0 0.0
2017-Dec-07 05:20N 40°38' W 074°08'0 0.0
2017-Dec-07 04:59N 40°38' W 074°08'0 0.0
2017-Dec-07 04:20N 40°38' W 074°08'1 3.0
2017-Dec-07 04:00N 40°39' W 074°09'2 3.8
2017-Dec-07 03:30N 40°41' W 074°08'1 1.7
2017-Dec-07 03:00N 40°41' W 074°09'2 5.0
2017-Dec-07 02:30N 40°39' W 074°09'4 9.0
2017-Dec-07 02:00N 40°40' W 074°03'2 4.9
2017-Dec-07 01:30N 40°41' W 074°01'2 4.0
2017-Dec-07 01:00N 40°40' W 074°03'1 2.0
2017-Dec-07 00:30N 40°40' W 074°04'0 0.0
2017-Dec-07 00:00N 40°40' W 074°04'3 6.0
2017-Dec-06 23:30N 40°39' W 074°08'2 4.2
2017-Dec-06 23:00N 40°39' W 074°11'1 1.5
2017-Dec-06 22:30N 40°38' W 074°11'2 3.9
2017-Dec-06 21:59N 40°39' W 074°09'1 1.6
2017-Dec-06 21:30N 40°38' W 074°08'0 0.0
2017-Dec-06 21:00N 40°38' W 074°08'  
2017-Dec-04 09:39N 40°38' W 074°08'0 0.0
2017-Dec-04 09:27N 40°38' W 074°08'0 0.0
2017-Dec-04 09:00N 40°38' W 074°08'0 0.0
2017-Dec-04 08:30N 40°38' W 074°08'0 0.0
2017-Dec-04 08:00N 40°38' W 074°08'0 0.0
2017-Dec-04 07:30N 40°38' W 074°08'0 0.0
2017-Dec-04 07:00N 40°38' W 074°08'0 0.0
2017-Dec-04 06:18N 40°38' W 074°08'0 0.0
2017-Dec-04 06:00N 40°38' W 074°08'0 0.0
2017-Dec-04 05:24N 40°38' W 074°08'0 0.0
2017-Dec-04 05:00N 40°38' W 074°08'0 0.0
2017-Dec-04 03:45N 40°38' W 074°08'0 0.0
2017-Dec-04 03:27N 40°38' W 074°08'0 0.0
2017-Dec-04 03:00N 40°38' W 074°08'0 0.0
2017-Dec-04 02:27N 40°38' W 074°08'0 0.0
2017-Dec-04 01:57N 40°38' W 074°08'0 0.0
2017-Dec-04 01:30N 40°38' W 074°08'0 0.0
2017-Dec-04 01:00N 40°38' W 074°08'0 0.0
2017-Dec-04 00:30N 40°38' W 074°08'0 0.0
2017-Dec-03 23:18N 40°38' W 074°08'0 0.0
2017-Dec-03 22:36N 40°38' W 074°08'0 0.0
2017-Dec-03 22:30N 40°38' W 074°08'0 0.0
2017-Dec-03 21:54N 40°38' W 074°08'0 0.0
2017-Dec-03 21:06N 40°38' W 074°08'0 0.0
2017-Dec-03 21:00N 40°38' W 074°08'0 0.0
2017-Dec-03 20:18N 40°38' W 074°08'0 0.0
2017-Dec-03 20:00N 40°38' W 074°08'0 0.0
2017-Dec-03 18:50N 40°38' W 074°08'0 0.0
2017-Dec-03 18:26N 40°38' W 074°08'0 0.0
2017-Dec-03 17:59N 40°38' W 074°08'0 0.0
2017-Dec-03 17:29N 40°38' W 074°08'2 3.1
2017-Dec-03 17:00N 40°40' W 074°09'0 0.9
2017-Dec-03 16:29N 40°39' W 074°09'3 5.5
2017-Dec-03 16:00N 40°39' W 074°05'2 4.4
2017-Dec-03 15:30N 40°38' W 074°03'2 4.8
2017-Dec-03 15:00N 40°40' W 074°04'0 0.0
2017-Dec-03 14:30N 40°40' W 074°04'0 0.0
2017-Dec-03 14:00N 40°40' W 074°04'0 0.0
2017-Dec-03 13:30N 40°40' W 074°04'1 2.9
2017-Dec-03 13:01N 40°39' W 074°04'1 2.4
2017-Dec-03 12:31N 40°39' W 074°05'0 0.0
2017-Dec-03 12:00N 40°39' W 074°05'2 4.1
2017-Dec-03 11:30N 40°38' W 074°08'0 0.0
2017-Dec-03 10:45N 40°38' W 074°08'0 0.0
2017-Dec-03 09:42N 40°38' W 074°08'0 0.0
2017-Dec-03 09:27N 40°38' W 074°08'0 0.0
2017-Dec-03 08:57N 40°38' W 074°08'0 0.0
2017-Dec-03 08:24N 40°38' W 074°08'0 0.0
2017-Dec-03 06:30N 40°38' W 074°08'0 0.0
2017-Dec-03 05:39N 40°38' W 074°08'0 0.0
2017-Dec-03 05:24N 40°38' W 074°08'0 0.0
2017-Dec-03 04:18N 40°38' W 074°08'0 0.0
2017-Dec-03 02:57N 40°38' W 074°08'0 0.0
2017-Dec-03 02:27N 40°38' W 074°08'0 0.0
2017-Dec-03 01:06N 40°38' W 074°08'0 0.0
2017-Dec-03 00:39N 40°38' W 074°08'0 0.0
2017-Dec-03 00:27N 40°38' W 074°08'0 0.0
2017-Dec-02 23:03N 40°38' W 074°08'0 0.0
2017-Dec-02 22:48N 40°38' W 074°08'0 0.0
2017-Dec-02 19:44N 40°38' W 074°08'1 3.8
2017-Dec-02 19:30N 40°39' W 074°09'3 5.7
2017-Dec-02 19:01N 40°41' W 074°08'2 3.4
2017-Dec-02 18:30N 40°40' W 074°09'1 1.7
2017-Dec-02 17:43N 40°38' W 074°08'0 0.0
2017-Dec-02 17:16N 40°38' W 074°08'0 0.0
2017-Dec-02 16:49N 40°39' W 074°08'0 0.1
2017-Dec-02 16:26N 40°38' W 074°08'0 0.0
2017-Dec-02 15:38N 40°38' W 074°08'0 0.0
2017-Dec-02 15:23N 40°38' W 074°08'0 0.0
2017-Dec-02 14:56N 40°38' W 074°08'0 0.0
2017-Dec-02 13:32N 40°38' W 074°08'0 0.0
2017-Dec-02 13:26N 40°38' W 074°08'0 0.0
2017-Dec-02 12:56N 40°38' W 074°08'0 0.0
2017-Dec-02 12:26N 40°38' W 074°08'3 6.9
2017-Dec-02 12:01N 40°40' W 074°05'1 1.1
2017-Dec-02 11:31N 40°40' W 074°05'1 2.3
2017-Dec-02 11:00N 40°40' W 074°04'1 1.7
2017-Dec-02 10:30N 40°39' W 074°03'3 6.4
2017-Dec-02 10:01N 40°39' W 074°07'2 3.1
2017-Dec-02 09:30N 40°40' W 074°08'0 0.6
2017-Dec-02 09:00N 40°40' W 074°09'0 0.0
2017-Dec-02 08:30N 40°40' W 074°09'0 0.4
2017-Dec-02 08:00N 40°40' W 074°09'0 0.0
2017-Dec-02 07:30N 40°40' W 074°09'0 0.0
2017-Dec-02 07:00N 40°40' W 074°09'1 1.8
2017-Dec-02 06:31N 40°39' W 074°09'2 4.2
2017-Dec-02 06:00N 40°41' W 074°09'0 0.4
2017-Dec-02 05:30N 40°41' W 074°09'3 1.2
2017-Dec-02 03:21N 40°38' W 074°08'0 0.0
2017-Dec-02 02:57N 40°38' W 074°08'0 0.0
2017-Dec-02 02:27N 40°38' W 074°08'0 0.0
2017-Dec-02 01:09N 40°38' W 074°08'0 0.0
2017-Dec-02 00:45N 40°38' W 074°08'0 0.0
2017-Dec-02 00:30N 40°38' W 074°08'0 0.0
2017-Dec-01 23:27N 40°38' W 074°08'0 0.0
2017-Dec-01 22:57N 40°38' W 074°08'0 0.0
2017-Dec-01 22:15N 40°38' W 074°08'0 0.0
2017-Dec-01 21:25N 40°38' W 074°08'1 2.5
2017-Dec-01 21:00N 40°39' W 074°09'1 2.8
2017-Dec-01 20:30N 40°41' W 074°08'1 1.2
2017-Dec-01 20:00N 40°41' W 074°09'2 4.5
2017-Dec-01 19:31N 40°39' W 074°09'1 1.7
2017-Dec-01 18:55N 40°38' W 074°08'0 0.0
2017-Dec-01 18:28N 40°38' W 074°08'0 0.0
2017-Dec-01 17:55N 40°38' W 074°08'0 0.0
2017-Dec-01 17:28N 40°38' W 074°08'0 0.0
2017-Dec-01 16:58N 40°38' W 074°08'0 0.0
2017-Dec-01 16:29N 40°38' W 074°08'0 0.0
2017-Dec-01 15:58N 40°39' W 074°08'0 0.0
2017-Dec-01 15:25N 40°39' W 074°08'0 0.0
2017-Dec-01 14:55N 40°39' W 074°08'0 0.0
2017-Dec-01 14:28N 40°39' W 074°08'0 0.0
2017-Dec-01 13:58N 40°39' W 074°08'0 0.0
2017-Dec-01 13:28N 40°39' W 074°08'0 0.0
2017-Dec-01 12:58N 40°39' W 074°08'0 0.0
2017-Dec-01 12:28N 40°39' W 074°08'0 0.3
2017-Dec-01 12:00N 40°39' W 074°08'3 6.4
2017-Dec-01 11:29N 40°42' W 074°09'0 0.0
2017-Dec-01 10:59N 40°42' W 074°09'0 0.6
2017-Dec-01 10:30N 40°42' W 074°08'3 6.1
2017-Dec-01 10:00N 40°39' W 074°09'3 7.0
2017-Dec-01 09:30N 40°39' W 074°04'1 2.0
2017-Dec-01 09:00N 40°40' W 074°04'1 1.7
2017-Dec-01 08:30N 40°39' W 074°03'4 8.3
2017-Dec-01 08:00N 40°39' W 074°09'2 4.0
2017-Dec-01 07:30N 40°40' W 074°08'  

Dump ship's entire track history